Time;durP1;ratioP1;P1;durP2;ratioP2;P2;SDS_P1;SDS_P2;PMS_P1;PMS_P2;Temp;Humidity;BMP_temperature;BMP_pressure;BME280_temperature;BME280_humidity;BME280_pressure;Samples;Min_cycle;Max_cycle;Signal;HPM_P1;HPM_P2
2023/10/30 00:01:25;;;;;;;6.10;1.70;;;9.50;99.90;;;;;;5081903;28;20043;-47
2023/10/30 00:03:52;;;;;;;4.47;1.40;;;9.50;99.90;;;;;;5075898;28;20492;-47
2023/10/30 00:06:17;;;;;;;3.47;1.48;;;9.50;99.90;;;;;;5071174;28;20426;-47
2023/10/30 00:08:43;;;;;;;4.82;1.77;;;9.40;99.90;;;;;;5070581;28;20044;-46
2023/10/30 00:11:09;;;;;;;6.32;1.70;;;9.40;99.90;;;;;;5067086;28;20040;-49
2023/10/30 00:13:35;;;;;;;3.28;1.45;;;9.30;99.90;;;;;;5069662;28;20044;-48
2023/10/30 00:16:00;;;;;;;4.75;1.45;;;9.30;99.90;;;;;;5081564;28;20050;-48
2023/10/30 00:18:28;;;;;;;5.65;1.83;;;9.30;99.90;;;;;;5076205;28;20045;-46
2023/10/30 00:20:53;;;;;;;6.32;1.42;;;9.30;99.90;;;;;;5086987;28;20047;-47
2023/10/30 00:23:19;;;;;;;8.80;1.80;;;9.20;99.90;;;;;;5073132;28;20119;-50
2023/10/30 00:25:45;;;;;;;6.45;1.73;;;9.20;99.90;;;;;;5093645;28;20044;-47
2023/10/30 00:28:10;;;;;;;6.97;1.70;;;9.30;99.90;;;;;;5091694;28;20579;-46
2023/10/30 00:30:36;;;;;;;7.43;1.75;;;9.30;99.90;;;;;;5090533;28;20051;-46
2023/10/30 00:33:01;;;;;;;7.22;1.67;;;9.30;99.90;;;;;;5090792;28;20063;-47
2023/10/30 00:35:27;;;;;;;6.03;1.65;;;9.30;99.90;;;;;;5087359;28;20512;-47
2023/10/30 00:37:52;;;;;;;4.25;1.58;;;9.30;99.90;;;;;;5091751;28;20448;-46
2023/10/30 00:40:19;;;;;;;4.75;1.90;;;9.40;99.90;;;;;;5091092;28;20043;-47
2023/10/30 00:42:45;;;;;;;7.43;2.00;;;9.30;99.90;;;;;;5070758;28;20076;-48
2023/10/30 00:45:10;;;;;;;10.85;2.30;;;9.30;99.90;;;;;;5075601;28;20090;-46
2023/10/30 00:47:38;;;;;;;5.25;1.98;;;9.30;99.90;;;;;;5072203;28;20397;-46
2023/10/30 00:50:07;;;;;;;6.32;2.05;;;9.30;99.90;;;;;;5073464;28;20067;-46
2023/10/30 00:52:33;;;;;;;7.95;1.95;;;9.30;99.90;;;;;;5071622;28;20064;-46
2023/10/30 00:54:59;;;;;;;6.95;1.95;;;9.30;99.90;;;;;;5070409;28;20059;-47
2023/10/30 00:57:24;;;;;;;6.95;2.17;;;9.30;99.90;;;;;;5081802;28;20040;-48
2023/10/30 00:59:50;;;;;;;6.75;1.85;;;9.30;99.90;;;;;;5075303;28;20036;-48
2023/10/30 01:02:16;;;;;;;9.60;2.10;;;9.30;99.90;;;;;;5090059;28;20051;-46
2023/10/30 01:04:41;;;;;;;7.28;1.92;;;9.30;99.90;;;;;;5079432;28;20086;-46
2023/10/30 01:07:07;;;;;;;5.90;2.10;;;9.30;99.90;;;;;;5075623;28;20045;-49
2023/10/30 01:09:33;;;;;;;10.82;2.58;;;9.30;99.90;;;;;;5079567;28;20158;-45
2023/10/30 01:11:59;;;;;;;11.23;2.35;;;9.30;99.90;;;;;;5087353;28;20130;-47
2023/10/30 01:14:25;;;;;;;10.00;2.13;;;9.30;99.90;;;;;;5074935;28;20121;-47
2023/10/30 01:16:51;;;;;;;7.75;2.05;;;9.40;99.90;;;;;;5078338;28;20499;-46
2023/10/30 01:19:17;;;;;;;6.30;1.95;;;9.40;99.90;;;;;;5080853;28;20068;-47
2023/10/30 01:21:43;;;;;;;9.90;2.30;;;9.30;99.90;;;;;;5079521;28;20075;-47
2023/10/30 01:24:09;;;;;;;5.72;1.73;;;9.30;99.90;;;;;;5089362;28;20060;-47
2023/10/30 01:26:35;;;;;;;5.18;2.17;;;9.30;99.90;;;;;;5077344;28;20047;-47
2023/10/30 01:29:01;;;;;;;6.80;2.33;;;9.30;99.90;;;;;;5075481;28;20032;-50
2023/10/30 01:31:29;;;;;;;11.43;2.10;;;9.30;99.90;;;;;;5074375;28;20041;-49
2023/10/30 01:33:55;;;;;;;12.10;2.67;;;9.30;99.90;;;;;;5078047;28;20048;-48
2023/10/30 01:36:20;;;;;;;9.70;2.40;;;9.30;99.90;;;;;;5084074;28;20038;-50
2023/10/30 01:38:46;;;;;;;9.02;1.90;;;9.30;99.90;;;;;;5081897;28;20115;-49
2023/10/30 01:41:12;;;;;;;10.55;2.50;;;9.30;99.90;;;;;;5077367;28;20036;-49
2023/10/30 01:43:37;;;;;;;8.38;2.08;;;9.30;99.90;;;;;;5086778;28;20036;-46
2023/10/30 01:46:05;;;;;;;10.13;2.75;;;9.20;99.90;;;;;;5078166;28;20669;-47
2023/10/30 01:48:33;;;;;;;8.05;2.20;;;9.30;99.90;;;;;;5080659;28;20048;-48
2023/10/30 01:51:00;;;;;;;6.18;1.80;;;9.30;99.90;;;;;;5084727;28;20130;-49
2023/10/30 01:53:31;;;;;;;8.32;1.75;;;9.30;99.90;;;;;;5075845;28;21558;-49
2023/10/30 01:55:58;;;;;;;8.52;1.83;;;9.30;99.90;;;;;;5086109;28;20101;-47
2023/10/30 01:58:24;;;;;;;11.20;2.45;;;9.30;99.90;;;;;;5087619;28;20452;-47
2023/10/30 02:00:50;;;;;;;9.20;2.15;;;9.40;99.90;;;;;;5085098;28;20047;-47
2023/10/30 02:03:16;;;;;;;12.52;2.28;;;9.40;99.90;;;;;;5088218;28;20123;-47
2023/10/30 02:05:42;;;;;;;11.20;2.35;;;9.40;99.90;;;;;;5073861;28;20464;-50
2023/10/30 02:08:09;;;;;;;8.82;2.05;;;9.50;99.90;;;;;;5077959;28;20040;-47
2023/10/30 02:10:35;;;;;;;11.15;2.58;;;9.50;99.90;;;;;;5075373;28;20052;-48
2023/10/30 02:13:05;;;;;;;9.52;2.00;;;9.50;99.90;;;;;;5076235;28;20104;-49
2023/10/30 02:15:31;;;;;;;10.55;2.38;;;9.60;99.90;;;;;;5076252;28;20037;-47
2023/10/30 02:17:56;;;;;;;12.18;2.35;;;9.70;99.90;;;;;;5075184;28;20109;-46
2023/10/30 02:20:22;;;;;;;10.77;2.50;;;9.70;99.90;;;;;;5077957;28;20036;-45
2023/10/30 02:22:48;;;;;;;7.97;2.00;;;9.70;99.90;;;;;;5073637;28;20032;-46
2023/10/30 02:25:18;;;;;;;11.80;2.63;;;9.80;99.90;;;;;;5072539;28;20052;-46
2023/10/30 02:27:44;;;;;;;9.82;2.45;;;9.80;99.90;;;;;;5072612;28;20058;-47
2023/10/30 02:30:11;;;;;;;10.32;2.47;;;9.90;99.90;;;;;;5083036;28;20124;-46
2023/10/30 02:32:38;;;;;;;17.63;2.75;;;9.90;99.90;;;;;;5075110;28;20044;-47
2023/10/30 02:35:04;;;;;;;11.77;2.60;;;10.00;99.90;;;;;;5073806;28;20036;-46
2023/10/30 02:37:29;;;;;;;11.70;1.90;;;10.00;99.90;;;;;;5072378;28;20044;-49
2023/10/30 02:39:57;;;;;;;12.05;2.28;;;10.00;99.90;;;;;;5074258;28;20036;-48
2023/10/30 02:42:23;;;;;;;15.95;2.35;;;10.00;99.90;;;;;;5082300;28;20426;-46
2023/10/30 02:44:49;;;;;;;7.70;2.33;;;10.00;99.90;;;;;;5075040;28;20119;-48
2023/10/30 02:47:14;;;;;;;13.00;2.22;;;9.90;99.90;;;;;;5071196;28;20159;-46
2023/10/30 02:49:40;;;;;;;11.98;2.25;;;10.00;99.90;;;;;;5074030;28;20044;-46
2023/10/30 02:52:05;;;;;;;13.70;2.40;;;10.00;99.90;;;;;;5073912;28;20507;-47
2023/10/30 02:54:31;;;;;;;8.27;1.80;;;10.00;99.90;;;;;;5073135;28;20037;-49
2023/10/30 02:56:56;;;;;;;8.57;2.17;;;10.00;99.90;;;;;;5073964;28;20438;-48
2023/10/30 02:59:22;;;;;;;11.55;2.28;;;9.90;99.90;;;;;;5072497;28;20043;-47
2023/10/30 03:01:48;;;;;;;10.43;2.20;;;10.00;99.90;;;;;;5076420;28;20035;-48
2023/10/30 03:04:16;;;;;;;11.13;2.47;;;9.90;99.90;;;;;;5075170;28;20036;-47
2023/10/30 03:06:41;;;;;;;10.60;2.28;;;10.00;99.90;;;;;;5077616;28;20043;-47
2023/10/30 03:09:08;;;;;;;8.63;2.35;;;10.00;99.90;;;;;;5079566;28;20044;-47
2023/10/30 03:11:33;;;;;;;11.85;2.80;;;10.00;99.90;;;;;;5079227;28;20051;-46
2023/10/30 03:13:59;;;;;;;10.82;2.65;;;10.00;99.90;;;;;;5078952;28;20044;-46
2023/10/30 03:16:25;;;;;;;10.60;2.50;;;9.90;99.90;;;;;;5086032;28;20033;-47
2023/10/30 03:18:50;;;;;;;11.30;2.20;;;9.90;99.90;;;;;;5076954;28;20094;-47
2023/10/30 03:21:16;;;;;;;7.78;2.13;;;9.90;99.90;;;;;;5074915;28;20151;-46
2023/10/30 03:23:42;;;;;;;12.68;2.45;;;9.90;99.90;;;;;;5072560;28;20051;-49
2023/10/30 03:26:07;;;;;;;10.77;2.42;;;9.90;99.90;;;;;;5071915;28;20177;-46
2023/10/30 03:28:33;;;;;;;15.02;2.40;;;9.80;99.90;;;;;;5072049;28;20040;-47
2023/10/30 03:31:09;;;;;;;11.95;2.55;;;9.80;99.90;;;;;;5080424;28;20437;-49
2023/10/30 03:33:35;;;;;;;11.85;2.63;;;9.80;99.90;;;;;;5086654;28;20446;-47
2023/10/30 03:36:02;;;;;;;11.32;2.47;;;9.80;99.90;;;;;;5080973;28;20429;-46
2023/10/30 03:38:27;;;;;;;12.90;2.35;;;9.80;99.90;;;;;;5076989;28;20036;-50
2023/10/30 03:40:53;;;;;;;12.07;2.30;;;9.80;99.90;;;;;;5074856;28;20078;-48
2023/10/30 03:43:19;;;;;;;9.02;2.20;;;9.80;99.90;;;;;;5071208;28;20124;-46
2023/10/30 03:45:44;;;;;;;10.98;2.25;;;9.80;99.90;;;;;;5076480;28;20093;-46
2023/10/30 03:48:10;;;;;;;12.13;2.78;;;9.80;99.90;;;;;;5076508;28;20168;-46
2023/10/30 03:50:35;;;;;;;10.15;2.80;;;9.70;99.90;;;;;;5078493;28;20064;-46
2023/10/30 03:53:01;;;;;;;10.55;1.90;;;9.70;99.90;;;;;;5071462;28;20528;-45
2023/10/30 03:55:27;;;;;;;9.98;2.42;;;9.70;99.90;;;;;;5073119;28;21921;-46
2023/10/30 03:57:52;;;;;;;10.90;2.60;;;9.70;99.90;;;;;;5075640;28;20039;-46
2023/10/30 04:00:18;;;;;;;11.35;2.47;;;9.60;99.90;;;;;;5072639;28;20054;-47
2023/10/30 04:02:44;;;;;;;13.02;1.88;;;9.60;99.90;;;;;;5076662;28;20043;-47
2023/10/30 04:05:09;;;;;;;12.43;2.42;;;9.60;99.90;;;;;;5073717;28;20029;-45
2023/10/30 04:07:35;;;;;;;12.80;2.70;;;9.50;99.90;;;;;;5080266;28;20058;-47
2023/10/30 04:10:01;;;;;;;9.73;1.88;;;9.50;99.90;;;;;;5069901;28;20063;-47
2023/10/30 04:12:27;;;;;;;9.85;2.40;;;9.50;99.90;;;;;;5075822;28;20113;-46
2023/10/30 04:14:52;;;;;;;10.30;2.42;;;9.50;99.90;;;;;;5078086;28;20086;-46
2023/10/30 04:17:18;;;;;;;9.75;2.42;;;9.50;99.90;;;;;;5071456;28;20059;-46
2023/10/30 04:19:44;;;;;;;11.52;2.67;;;9.50;99.90;;;;;;5071667;28;20481;-49
2023/10/30 04:22:09;;;;;;;9.73;2.55;;;9.50;99.90;;;;;;5072314;28;20038;-49
2023/10/30 04:24:35;;;;;;;9.52;2.13;;;9.50;99.90;;;;;;5070164;28;20052;-50
2023/10/30 04:27:01;;;;;;;11.73;2.70;;;9.50;99.90;;;;;;5071437;28;20048;-46
2023/10/30 04:29:27;;;;;;;12.68;2.67;;;9.50;99.90;;;;;;5071379;28;20033;-46
2023/10/30 04:31:53;;;;;;;10.50;2.17;;;9.50;99.90;;;;;;5069713;28;20067;-48
2023/10/30 04:34:19;;;;;;;15.68;2.42;;;9.40;99.90;;;;;;5079735;28;20485;-47
2023/10/30 04:36:45;;;;;;;11.57;2.63;;;9.40;99.90;;;;;;5072221;28;20163;-49
2023/10/30 04:39:13;;;;;;;13.10;2.58;;;9.40;99.90;;;;;;5070739;28;20412;-47
2023/10/30 04:41:39;;;;;;;8.20;2.15;;;9.50;99.90;;;;;;5072301;28;20194;-46
2023/10/30 04:44:05;;;;;;;14.65;2.75;;;9.50;99.90;;;;;;5086621;28;20480;-49
2023/10/30 04:46:31;;;;;;;13.40;2.30;;;9.50;99.90;;;;;;5075546;28;20039;-47
2023/10/30 04:48:56;;;;;;;13.40;2.78;;;9.50;99.90;;;;;;5068873;28;20044;-48
2023/10/30 04:51:22;;;;;;;10.15;2.72;;;9.50;99.90;;;;;;5071887;28;20366;-50
2023/10/30 04:53:48;;;;;;;11.05;2.38;;;9.50;99.90;;;;;;5071192;28;20396;-46
2023/10/30 04:56:13;;;;;;;10.30;2.10;;;9.50;99.90;;;;;;5073251;28;20374;-46
2023/10/30 04:58:39;;;;;;;9.13;1.98;;;9.50;99.90;;;;;;5070333;28;20043;-48
2023/10/30 05:01:11;;;;;;;8.77;2.55;;;9.50;99.90;;;;;;5071162;28;20090;-47
2023/10/30 05:03:37;;;;;;;12.93;2.95;;;9.50;99.90;;;;;;5071956;28;20037;-50
2023/10/30 05:06:04;;;;;;;11.23;2.38;;;9.40;99.90;;;;;;5072362;28;20059;-49
2023/10/30 05:08:29;;;;;;;11.50;2.42;;;9.50;99.90;;;;;;5072198;28;20486;-46
2023/10/30 05:10:55;;;;;;;7.65;2.15;;;9.50;99.90;;;;;;5071440;28;20048;-45
2023/10/30 05:13:20;;;;;;;11.20;2.20;;;9.50;99.90;;;;;;5071245;28;20033;-46
2023/10/30 05:15:46;;;;;;;11.57;2.80;;;9.50;99.90;;;;;;5071641;28;20032;-49
2023/10/30 05:18:13;;;;;;;12.77;3.00;;;9.50;99.90;;;;;;5077109;28;20037;-46
2023/10/30 05:20:39;;;;;;;10.75;2.28;;;9.50;99.90;;;;;;5072528;28;20048;-46
2023/10/30 05:23:04;;;;;;;9.60;2.42;;;9.50;99.90;;;;;;5075330;28;20342;-46
2023/10/30 05:25:30;;;;;;;13.25;2.42;;;9.50;99.90;;;;;;5075730;28;20060;-46
2023/10/30 05:27:57;;;;;;;12.38;2.40;;;9.60;99.90;;;;;;5076107;28;20040;-47
2023/10/30 05:30:22;;;;;;;16.45;2.60;;;9.60;99.90;;;;;;5070410;28;20044;-47
2023/10/30 05:32:48;;;;;;;10.50;2.50;;;9.60;99.90;;;;;;5074028;28;20051;-49
2023/10/30 05:35:14;;;;;;;8.18;2.10;;;9.60;99.90;;;;;;5071513;28;20081;-50
2023/10/30 05:37:39;;;;;;;15.13;2.67;;;9.60;99.90;;;;;;5075701;28;20075;-49
2023/10/30 05:40:07;;;;;;;10.40;2.15;;;9.60;99.90;;;;;;5076062;28;20119;-48
2023/10/30 05:42:34;;;;;;;12.38;2.20;;;9.60;99.90;;;;;;5077924;28;20520;-47
2023/10/30 05:44:59;;;;;;;10.48;2.20;;;9.60;99.90;;;;;;5073052;28;20072;-48
2023/10/30 05:47:25;;;;;;;12.25;2.25;;;9.60;99.90;;;;;;5077672;28;20033;-46
2023/10/30 05:49:50;;;;;;;10.48;2.50;;;9.60;99.90;;;;;;5083169;28;20088;-48
2023/10/30 05:52:16;;;;;;;7.15;2.28;;;9.50;99.90;;;;;;5083339;28;20375;-46
2023/10/30 05:54:42;;;;;;;10.40;2.50;;;9.50;99.90;;;;;;5079628;28;20040;-47
2023/10/30 05:57:07;;;;;;;13.82;2.47;;;9.50;99.90;;;;;;5077714;28;20123;-48
2023/10/30 05:59:33;;;;;;;13.15;2.50;;;9.50;99.90;;;;;;5074759;28;20037;-48
2023/10/30 06:01:58;;;;;;;14.70;2.72;;;9.50;99.90;;;;;;5073636;28;20044;-46
2023/10/30 06:04:24;;;;;;;12.93;2.58;;;9.50;99.90;;;;;;5074831;28;20093;-47
2023/10/30 06:06:50;;;;;;;9.38;2.35;;;9.40;99.90;;;;;;5073408;28;20123;-47
2023/10/30 06:09:15;;;;;;;10.13;2.33;;;9.50;99.90;;;;;;5077090;28;20572;-47
2023/10/30 06:11:45;;;;;;;8.82;2.45;;;9.50;99.90;;;;;;5073803;28;20047;-50
2023/10/30 06:14:11;;;;;;;13.95;2.53;;;9.50;99.90;;;;;;5080314;28;20062;-47
2023/10/30 06:16:36;;;;;;;14.40;2.53;;;9.40;99.90;;;;;;5084605;28;20040;-50
2023/10/30 06:19:02;;;;;;;15.60;2.70;;;9.50;99.90;;;;;;5081654;28;20067;-49
2023/10/30 06:21:28;;;;;;;11.82;2.67;;;9.50;99.90;;;;;;5074443;28;20044;-45
2023/10/30 06:23:53;;;;;;;15.98;2.53;;;9.50;99.90;;;;;;5073510;28;20037;-46
2023/10/30 06:26:19;;;;;;;11.02;2.40;;;9.50;99.90;;;;;;5074512;28;20413;-46
2023/10/30 06:28:45;;;;;;;12.10;2.35;;;9.50;99.90;;;;;;5076169;28;20055;-50
2023/10/30 06:31:19;;;;;;;8.00;2.25;;;9.50;99.90;;;;;;5080219;28;20037;-48
2023/10/30 06:33:46;;;;;;;11.07;2.20;;;9.60;99.90;;;;;;5081722;28;20135;-46
2023/10/30 06:36:12;;;;;;;7.53;2.45;;;9.60;99.90;;;;;;5077302;28;20430;-48
2023/10/30 06:38:38;;;;;;;15.35;2.40;;;9.60;99.90;;;;;;5075426;28;20124;-47
2023/10/30 06:41:04;;;;;;;12.05;2.35;;;9.60;99.90;;;;;;5076270;28;20044;-50
2023/10/30 06:43:32;;;;;;;13.13;2.60;;;9.60;99.90;;;;;;5074261;28;20051;-47
2023/10/30 06:45:59;;;;;;;9.48;2.50;;;9.60;99.90;;;;;;5078946;28;20048;-47
2023/10/30 06:48:24;;;;;;;10.85;2.33;;;9.60;99.90;;;;;;5073877;28;20048;-46
2023/10/30 06:50:50;;;;;;;12.32;2.40;;;9.70;99.90;;;;;;5074479;28;20375;-49
2023/10/30 06:53:15;;;;;;;14.45;2.67;;;9.60;99.90;;;;;;5078636;28;20040;-50
2023/10/30 06:55:41;;;;;;;10.18;2.08;;;9.60;99.90;;;;;;5079090;28;20376;-47
2023/10/30 06:58:06;;;;;;;13.68;2.75;;;9.70;99.90;;;;;;5077977;28;20040;-47
2023/10/30 07:00:33;;;;;;;9.98;2.40;;;9.70;99.90;;;;;;5077814;28;20044;-47
2023/10/30 07:02:59;;;;;;;10.02;2.42;;;9.70;99.90;;;;;;5073854;28;20043;-46
2023/10/30 07:05:24;;;;;;;7.50;2.22;;;9.80;99.90;;;;;;5081365;28;20039;-46
2023/10/30 07:07:50;;;;;;;10.75;2.22;;;9.80;99.90;;;;;;5075973;28;20442;-47
2023/10/30 07:10:16;;;;;;;9.27;2.25;;;9.90;99.90;;;;;;5075943;28;20055;-46
2023/10/30 07:12:41;;;;;;;8.52;1.90;;;9.80;99.90;;;;;;5073280;28;20128;-46
2023/10/30 07:15:07;;;;;;;12.60;2.33;;;9.90;99.90;;;;;;5074870;28;20045;-47
2023/10/30 07:17:33;;;;;;;11.90;2.05;;;9.90;99.90;;;;;;5077327;28;20053;-47
2023/10/30 07:19:59;;;;;;;8.07;2.13;;;10.10;99.90;;;;;;5074716;28;20392;-49
2023/10/30 07:22:25;;;;;;;13.23;2.50;;;10.10;99.90;;;;;;5073253;28;20097;-46
2023/10/30 07:24:50;;;;;;;7.30;2.00;;;10.20;99.90;;;;;;5072763;28;20141;-47
2023/10/30 07:27:18;;;;;;;15.52;3.10;;;10.20;99.90;;;;;;5074861;28;20083;-50
2023/10/30 07:29:44;;;;;;;11.03;2.07;;;10.30;99.90;;;;;;5073842;28;20397;-50
2023/10/30 07:32:10;;;;;;;10.40;2.38;;;10.30;99.90;;;;;;5070863;28;20295;-46
2023/10/30 07:34:35;;;;;;;10.52;2.42;;;10.40;99.90;;;;;;5075074;28;20452;-48
2023/10/30 07:37:01;;;;;;;10.95;2.83;;;10.40;99.90;;;;;;5074766;28;20127;-48
2023/10/30 07:39:27;;;;;;;11.57;2.30;;;10.50;99.90;;;;;;5071588;28;20350;-50
2023/10/30 07:41:52;;;;;;;9.60;2.25;;;10.50;99.90;;;;;;5072839;28;20032;-49
2023/10/30 07:44:18;;;;;;;14.32;2.67;;;10.60;99.90;;;;;;5074832;28;20530;-47
2023/10/30 07:46:43;;;;;;;12.23;2.25;;;10.60;99.90;;;;;;5071044;28;20036;-47
2023/10/30 07:49:09;;;;;;;9.93;3.08;;;10.70;99.90;;;;;;5077583;28;20051;-47
2023/10/30 07:51:35;;;;;;;10.40;2.28;;;10.70;99.90;;;;;;5072436;28;20079;-49
2023/10/30 07:54:00;;;;;;;11.55;2.55;;;10.70;99.90;;;;;;5074810;28;20041;-48
2023/10/30 07:56:26;;;;;;;11.73;1.95;;;10.80;99.90;;;;;;5070376;28;20040;-47
2023/10/30 07:58:51;;;;;;;11.32;2.80;;;10.90;99.90;;;;;;5073534;28;20082;-46
2023/10/30 08:01:20;;;;;;;9.35;2.13;;;10.90;99.90;;;;;;5071576;28;20028;-46
2023/10/30 08:03:49;;;;;;;13.15;2.42;;;11.00;99.90;;;;;;5068857;28;20135;-49
2023/10/30 08:06:14;;;;;;;12.27;2.60;;;11.00;99.90;;;;;;5067899;28;20032;-48
2023/10/30 08:08:40;;;;;;;11.68;2.28;;;11.10;99.90;;;;;;5071528;28;20086;-47
2023/10/30 08:11:06;;;;;;;7.57;2.03;;;11.20;99.90;;;;;;5075526;28;20097;-47
2023/10/30 08:13:32;;;;;;;10.13;2.17;;;11.40;99.90;;;;;;5076814;28;20068;-48
2023/10/30 08:15:58;;;;;;;9.50;2.25;;;11.60;99.90;;;;;;5073832;28;20105;-46
2023/10/30 08:18:25;;;;;;;8.60;2.10;;;11.40;99.90;;;;;;5074630;28;20039;-47
2023/10/30 08:20:51;;;;;;;11.32;2.20;;;11.40;99.90;;;;;;5080153;28;20040;-46
2023/10/30 08:23:16;;;;;;;9.88;2.10;;;11.60;99.90;;;;;;5072401;28;20036;-48
2023/10/30 08:25:43;;;;;;;13.82;2.70;;;11.60;99.90;;;;;;5072252;28;20547;-47
2023/10/30 08:28:10;;;;;;;10.57;2.40;;;11.70;99.90;;;;;;5078388;28;20131;-48
2023/10/30 08:30:35;;;;;;;12.98;2.38;;;11.80;99.90;;;;;;5076271;28;20078;-48
2023/10/30 08:33:04;;;;;;;9.57;2.33;;;12.00;99.90;;;;;;5071116;28;20055;-48
2023/10/30 08:35:30;;;;;;;8.68;2.28;;;11.90;99.90;;;;;;5075349;28;20047;-46
2023/10/30 08:37:57;;;;;;;11.23;2.42;;;11.90;99.90;;;;;;5081410;28;20470;-48
2023/10/30 08:40:23;;;;;;;8.13;2.27;;;12.00;99.90;;;;;;5073052;28;20041;-47
2023/10/30 08:42:49;;;;;;;11.05;3.15;;;12.00;99.90;;;;;;5073297;28;20032;-48
2023/10/30 08:45:15;;;;;;;10.30;2.42;;;12.20;99.90;;;;;;5058391;28;20454;-49
2023/10/30 08:47:40;;;;;;;9.32;2.17;;;12.30;99.90;;;;;;5079969;28;20485;-49
2023/10/30 08:50:09;;;;;;;10.55;2.28;;;12.40;99.90;;;;;;5072766;28;20401;-47
2023/10/30 08:52:35;;;;;;;13.27;2.25;;;;;;;;;;5076553;28;20441;-48
2023/10/30 08:55:01;;;;;;;10.27;2.17;;;12.40;99.90;;;;;;5073804;28;20079;-47
2023/10/30 08:57:27;;;;;;;13.13;3.08;;;12.40;99.90;;;;;;5071445;28;20072;-46
2023/10/30 08:59:52;;;;;;;10.15;2.40;;;12.50;99.90;;;;;;5073617;28;20497;-46
2023/10/30 09:02:18;;;;;;;10.00;2.00;;;12.50;99.90;;;;;;5077317;28;20037;-48
2023/10/30 09:04:44;;;;;;;9.52;2.28;;;12.60;99.90;;;;;;5075165;28;20485;-47
2023/10/30 09:07:10;;;;;;;7.38;1.90;;;12.70;99.90;;;;;;5077474;28;20040;-46
2023/10/30 09:09:36;;;;;;;11.70;2.45;;;12.70;99.90;;;;;;5074569;28;20060;-49
2023/10/30 09:12:02;;;;;;;9.30;2.05;;;12.70;99.90;;;;;;5073143;28;20386;-48
2023/10/30 09:14:27;;;;;;;9.10;2.03;;;12.60;99.90;;;;;;5082540;28;20036;-50
2023/10/30 09:16:53;;;;;;;11.75;2.78;;;12.50;99.90;;;;;;5072057;28;20052;-46
2023/10/30 09:19:19;;;;;;;14.68;2.72;;;12.40;99.90;;;;;;5077943;28;20050;-46
2023/10/30 09:21:45;;;;;;;11.30;2.47;;;12.40;99.90;;;;;;5077569;28;20440;-47
2023/10/30 09:24:11;;;;;;;8.43;1.92;;;12.30;99.90;;;;;;5082685;28;20108;-46
2023/10/30 09:26:36;;;;;;;11.77;2.85;;;12.30;99.90;;;;;;5073960;28;20044;-46
2023/10/30 09:29:02;;;;;;;8.00;2.33;;;12.30;99.90;;;;;;5085983;28;20040;-46
2023/10/30 09:31:30;;;;;;;10.80;2.22;;;12.30;99.90;;;;;;5057157;28;20045;-46
2023/10/30 09:33:57;;;;;;;14.88;2.10;;;12.30;99.90;;;;;;5074698;28;20051;-46
2023/10/30 09:36:22;;;;;;;16.27;2.55;;;12.40;99.90;;;;;;5088213;28;20040;-47
2023/10/30 09:38:48;;;;;;;10.90;2.20;;;12.60;99.90;;;;;;5085704;28;20115;-58
2023/10/30 09:41:18;;;;;;;15.07;2.45;;;12.70;99.90;;;;;;5083103;28;20036;-48
2023/10/30 09:43:46;;;;;;;9.55;1.90;;;12.70;99.90;;;;;;5078595;28;20040;-46
2023/10/30 09:46:14;;;;;;;13.40;2.42;;;;;;;;;;5086558;28;20045;-48
2023/10/30 09:48:40;;;;;;;13.50;2.78;;;13.00;99.90;;;;;;5078842;28;20401;-47
2023/10/30 09:51:08;;;;;;;9.30;2.55;;;13.00;99.90;;;;;;5073909;28;20044;-49
2023/10/30 09:53:33;;;;;;;;;;;13.10;99.90;;;;;;5084582;28;20388;-47
2023/10/30 09:56:00;;;;;;;9.23;2.22;;;13.20;99.90;;;;;;5076503;28;19920;-47
2023/10/30 09:58:25;;;;;;;10.52;2.28;;;13.30;99.90;;;;;;5084519;28;20576;-48
2023/10/30 10:00:51;;;;;;;10.52;2.20;;;13.50;99.90;;;;;;5093223;28;20123;-46
2023/10/30 10:03:17;;;;;;;9.80;2.10;;;13.70;99.90;;;;;;5082664;28;20045;-49
2023/10/30 10:05:42;;;;;;;10.20;2.30;;;13.80;99.90;;;;;;5074696;28;20041;-47
2023/10/30 10:08:08;;;;;;;9.90;2.33;;;13.90;99.90;;;;;;5075925;28;20875;-50
2023/10/30 10:10:55;;;;;;;8.07;1.85;;;14.30;99.90;;;;;;5074451;28;20078;-48
2023/10/30 10:13:21;;;;;;;12.10;2.60;;;14.40;99.90;;;;;;5078207;28;20123;-48
2023/10/30 10:15:48;;;;;;;7.55;2.17;;;14.60;99.90;;;;;;5076188;28;20385;-47
2023/10/30 10:18:24;;;;;;;6.43;2.05;;;14.80;99.90;;;;;;5077413;28;20040;-49
2023/10/30 10:21:11;;;;;;;8.77;2.00;;;14.80;99.90;;;;;;5082204;28;20362;-50
2023/10/30 10:23:38;;;;;;;8.17;2.20;;;14.80;99.90;;;;;;5081022;28;20255;-47
2023/10/30 10:26:15;;;;;;;10.27;2.03;;;14.70;99.90;;;;;;5077732;28;20470;-49
2023/10/30 10:28:48;;;;;;;9.37;2.30;;;14.70;99.90;;;;;;5079447;28;20468;-49
2023/10/30 10:31:14;;;;;;;9.00;1.98;;;14.90;99.90;;;;;;5077447;28;20052;-47
2023/10/30 10:33:40;;;;;;;7.13;1.65;;;14.90;99.90;;;;;;5074120;28;20390;-47
2023/10/30 10:36:07;;;;;;;7.13;2.10;;;15.00;99.90;;;;;;5077563;28;20049;-48
2023/10/30 10:38:33;;;;;;;10.10;2.20;;;15.00;99.90;;;;;;5074666;28;20048;-48
2023/10/30 10:40:59;;;;;;;10.82;2.47;;;14.90;99.90;;;;;;5073004;28;20377;-48
2023/10/30 10:43:29;;;;;;;10.07;2.30;;;14.80;99.90;;;;;;5073711;28;20066;-47
2023/10/30 10:45:56;;;;;;;7.57;2.00;;;14.60;99.90;;;;;;5074134;28;20117;-47
2023/10/30 10:48:24;;;;;;;10.55;2.10;;;14.50;99.90;;;;;;5080126;28;20489;-49
2023/10/30 10:50:50;;;;;;;10.85;2.15;;;14.40;99.90;;;;;;5080762;28;20043;-48
2023/10/30 10:53:20;;;;;;;10.82;2.35;;;14.30;99.90;;;;;;5083146;28;20115;-47
2023/10/30 10:55:47;;;;;;;8.13;2.15;;;14.30;99.90;;;;;;5079148;28;20041;-47
2023/10/30 10:58:25;;;;;;;9.68;2.22;;;14.30;99.90;;;;;;5079787;28;20040;-47
2023/10/30 11:00:52;;;;;;;10.07;2.25;;;14.30;99.90;;;;;;5075450;28;20071;-46
2023/10/30 11:03:21;;;;;;;7.75;2.00;;;14.30;99.90;;;;;;5081185;28;20503;-46
2023/10/30 11:05:50;;;;;;;12.35;2.13;;;14.40;99.90;;;;;;5087517;28;20079;-47
2023/10/30 11:08:54;;;;;;;9.25;1.98;;;14.40;99.90;;;;;;5079793;28;20051;-45
2023/10/30 11:11:28;;;;;;;12.63;2.38;;;14.50;99.90;;;;;;5080407;28;20073;-46
2023/10/30 11:14:44;;;;;;;8.43;2.10;;;14.50;99.90;;;;;;5082713;28;20059;-46
2023/10/30 11:17:10;;;;;;;12.77;2.80;;;14.50;99.90;;;;;;5072685;28;20424;-46
2023/10/30 11:19:38;;;;;;;9.23;2.17;;;14.50;99.90;;;;;;5073160;28;20055;-47
2023/10/30 11:22:04;;;;;;;10.43;2.28;;;14.50;99.90;;;;;;5088701;28;20060;-47
2023/10/30 11:24:37;;;;;;;11.30;2.47;;;14.60;99.90;;;;;;5089603;28;20052;-48
2023/10/30 11:27:25;;;;;;;7.70;2.38;;;14.60;99.90;;;;;;5085641;28;20043;-48
2023/10/30 11:30:00;;;;;;;7.95;2.00;;;14.60;99.90;;;;;;5089186;28;20048;-47
2023/10/30 11:32:27;;;;;;;9.98;2.10;;;14.60;99.90;;;;;;5086559;28;20407;-47
2023/10/30 11:34:53;;;;;;;8.98;1.98;;;14.50;99.90;;;;;;5088361;28;20050;-48
2023/10/30 11:37:22;;;;;;;8.48;2.30;;;14.40;99.90;;;;;;5088319;28;20068;-46
2023/10/30 11:39:49;;;;;;;9.40;2.00;;;14.40;99.90;;;;;;5071165;28;20036;-49
2023/10/30 11:42:24;;;;;;;9.02;2.30;;;14.40;99.90;;;;;;5069225;28;20052;-49
2023/10/30 11:44:50;;;;;;;11.00;2.28;;;14.50;99.90;;;;;;5087112;28;20047;-47
2023/10/30 11:47:22;;;;;;;13.30;2.13;;;14.40;99.90;;;;;;5069078;28;20508;-46
2023/10/30 11:49:47;;;;;;;11.63;2.45;;;14.50;99.90;;;;;;5081357;28;20048;-48
2023/10/30 11:52:13;;;;;;;9.98;2.35;;;14.60;99.90;;;;;;5077652;28;20040;-50
2023/10/30 11:54:46;;;;;;;10.90;2.28;;;14.60;99.90;;;;;;5083115;28;20063;-48
2023/10/30 11:57:11;;;;;;;12.00;2.05;;;14.70;99.90;;;;;;5079644;28;20040;-47
2023/10/30 11:59:38;;;;;;;7.90;2.20;;;14.70;99.90;;;;;;5071688;28;20181;-47
2023/10/30 12:02:07;;;;;;;12.43;2.45;;;14.80;99.90;;;;;;5072770;28;20389;-49
2023/10/30 12:04:33;;;;;;;10.02;2.03;;;14.80;99.90;;;;;;5073048;28;20413;-48
2023/10/30 12:06:58;;;;;;;9.65;2.00;;;14.80;99.90;;;;;;5073998;28;20065;-46
2023/10/30 12:09:25;;;;;;;10.38;2.67;;;14.80;99.90;;;;;;5072263;28;20055;-48
2023/10/30 12:11:52;;;;;;;12.87;2.00;;;14.80;99.90;;;;;;5077632;28;20139;-48
2023/10/30 12:14:19;;;;;;;11.73;2.15;;;14.70;99.90;;;;;;5072195;28;20063;-46
2023/10/30 12:16:52;;;;;;;7.68;1.92;;;14.70;99.90;;;;;;5072592;28;20048;-46
2023/10/30 12:19:21;;;;;;;12.43;2.33;;;14.70;99.90;;;;;;5070911;28;20050;-47
2023/10/30 12:21:51;;;;;;;7.70;2.30;;;14.70;99.90;;;;;;5071313;28;20166;-46
2023/10/30 12:24:18;;;;;;;8.60;2.10;;;14.70;99.90;;;;;;5070776;28;20141;-49
2023/10/30 12:26:46;;;;;;;7.72;2.55;;;14.70;99.90;;;;;;5073571;28;20028;-46
2023/10/30 12:29:19;;;;;;;11.00;2.50;;;14.80;99.90;;;;;;5076967;28;20040;-47
2023/10/30 12:31:49;;;;;;;12.40;2.60;;;14.80;99.90;;;;;;5073775;28;20051;-50
2023/10/30 12:34:16;;;;;;;13.43;3.40;;;14.90;99.90;;;;;;5082188;28;20047;-48
2023/10/30 12:36:41;;;;;;;10.90;2.28;;;15.00;99.90;;;;;;5087467;28;20043;-47
2023/10/30 12:39:16;;;;;;;10.73;2.00;;;15.10;99.90;;;;;;5071964;28;20120;-47
2023/10/30 12:41:41;;;;;;;10.93;1.80;;;15.20;99.90;;;;;;5070556;28;20554;-48
2023/10/30 12:44:07;;;;;;;9.23;2.30;;;15.30;99.90;;;;;;5080284;28;20052;-48
2023/10/30 12:46:33;;;;;;;11.55;2.85;;;15.20;99.90;;;;;;5081819;28;20494;-47